Surface/Precipitation History
11/22/2014 11:40  to  11/23/2014 11:40
Change End Date:
Date/Time
(MST)
Sf
Temp Chem Water Layer Surface Precipitation
Sf Sub Frz Factor Pct Depth IcePct Cond Salin Type Intens Accum Rate
11/23/2014 11:39 Chemically Wet 30.6F 30F 31F 95 3% - 70% 9 mhos 942 None None - -
11/23/2014 11:33 Chemically Wet 30.6F 30F 31F 95 3% - 70% 9 mhos 957 None None - -
11/23/2014 11:23 Chemically Wet 30.4F 30F 31F 95 3% - 74% 8 mhos 893 None None - -
11/23/2014 11:13 Ice Warning 30.2F 31F 32F 95 2% - 89% 4 mhos 467 None None - -
11/23/2014 11:11 Ice Warning 30.0F 31F 32F 95 2% - 89% 4 mhos 457 None None - -
11/23/2014 11:03 Ice Warning 29.8F 31F 32F 95 1% - 90% 4 mhos 442 None None - -
11/23/2014 10:53 Ice Warning 28.9F 31F 32F 95 1% - 93% 3 mhos 436 None None - -
11/23/2014 10:43 Ice Warning 28.0F 31F 32F 95 2% - 94% 3 mhos 458 None None - -
11/23/2014 10:40 Ice Warning 27.7F 31F 32F 95 2% - 94% 3 mhos 463 None None - -
11/23/2014 10:33 Ice Warning 27.3F 31F 32F 95 2% - 95% 3 mhos 468 None None - -
11/23/2014 10:23 Ice Warning 27.0F 31F 32F 95 2% - 95% 3 mhos 474 None None - -
11/23/2014 10:13 Ice Warning 27.1F 31F 32F 95 2% - 95% 3 mhos 474 None None - -
11/23/2014 10:11 Ice Warning 27.3F 31F 32F 95 2% - 95% 3 mhos 468 None None - -
11/23/2014 10:03 Ice Warning 27.3F 31F 32F 95 2% - 94% 3 mhos 475 None None - -
11/23/2014 09:53 Ice Warning 26.8F 31F 32F 95 2% - 95% 3 mhos 486 None None - -
Date/Time
(MST)
Sf
Temp Chem Water Layer Surface Precipitation
Sf Sub Frz Factor Pct Depth IcePct Cond Salin Type Intens Accum Rate
11/23/2014 09:43 Ice Warning 26.4F 31F 32F 95 2% - 95% 3 mhos 472 None None - -
11/23/2014 09:39 Ice Warning 26.4F 31F 32F 95 2% - 95% 3 mhos 478 None None - -
11/23/2014 09:33 Ice Warning 26.2F 31F 32F 95 2% - 95% 3 mhos 484 None None - -
11/23/2014 09:23 Ice Warning 26.1F 31F 32F 95 2% - 95% 3 mhos 484 None None - -
11/23/2014 09:13 Ice Warning 25.7F 31F 32F 95 2% - 95% 3 mhos 503 None None - -
11/23/2014 09:08 Ice Warning 25.5F 31F 32F 95 2% - 95% 3 mhos 503 None None - -
11/23/2014 09:03 Ice Warning 25.2F 31F 32F 95 2% - 96% 3 mhos 503 None None - -
11/23/2014 08:53 Ice Warning 24.6F 31F 32F 95 2% - 96% 3 mhos 515 None None - -
11/23/2014 08:43 Ice Warning 24.8F 31F 32F 95 2% - 95% 3 mhos 536 None None - -
11/23/2014 08:33 Ice Warning 25.5F 31F 32F 95 2% - 95% 3 mhos 523 None None - -
11/23/2014 08:33 Ice Warning 25.5F 31F 32F 95 2% - 95% 3 mhos 523 None None - -
11/23/2014 08:22 Ice Warning 25.5F 31F 32F 95 2% - 95% 3 mhos 530 None None - -
11/23/2014 08:20 Ice Warning 25.3F 31F 32F 95 2% - 95% 3 mhos 537 None None - -
11/23/2014 08:12 Ice Warning 25.3F 31F 32F 95 2% - 95% 3 mhos 530 None None - -
11/23/2014 08:02 Ice Warning 25.2F 31F 32F 95 2% - 95% 3 mhos 529 None None - -
Date/Time
(MST)
Sf
Temp Chem Water Layer Surface Precipitation
Sf Sub Frz Factor Pct Depth IcePct Cond Salin Type Intens Accum Rate
11/23/2014 08:01 Ice Warning 25.2F 31F 32F 95 2% - 95% 3 mhos 529 Yes - - -
11/23/2014 07:52 Ice Warning 25.2F 31F 32F 95 2% - 95% 3 mhos 529 Yes - - -
11/23/2014 07:50 Ice Warning 25.2F 31F 32F 95 2% - 95% 3 mhos 522 Yes - - -
11/23/2014 07:42 Ice Warning 25.0F 31F 32F 95 2% - 95% 3 mhos 529 None None - -
11/23/2014 07:32 Ice Warning 25.0F 31F 32F 95 2% - 96% 3 mhos 522 None None - -
11/23/2014 07:30 Ice Warning 25.0F 31F 32F 95 2% - 96% 3 mhos 522 None None - -
11/23/2014 07:22 Ice Warning 25.0F 31F 32F 95 2% - 96% 3 mhos 522 None None - -
11/23/2014 07:12 Ice Warning 25.0F 31F 32F 95 2% - 96% 3 mhos 515 None None - -
11/23/2014 07:10 Ice Warning 25.0F 31F 32F 95 2% - 96% 3 mhos 515 None None - -
11/23/2014 07:02 Ice Warning 25.0F 31F 32F 95 2% - 96% 3 mhos 522 None None - -
11/23/2014 06:52 Ice Warning 25.2F 31F 32F 95 2% - 95% 3 mhos 515 None None - -
11/23/2014 06:42 Ice Warning 25.0F 31F 32F 95 2% - 96% 3 mhos 515 None None - -
11/23/2014 06:39 Ice Warning 25.0F 31F 32F 95 2% - 96% 3 mhos 515 None None - -
11/23/2014 06:32 Ice Warning 24.8F 31F 32F 95 2% - 96% 3 mhos 508 None None - -
11/23/2014 06:22 Ice Warning 24.8F 31F 32F 95 2% - 96% 3 mhos 502 None None - -
Date/Time
(MST)
Sf
Temp Chem Water Layer Surface Precipitation
Sf Sub Frz Factor Pct Depth IcePct Cond Salin Type Intens Accum Rate
11/23/2014 06:12 Ice Warning 25.2F 31F 32F 95 2% - 96% 3 mhos 496 None None - -
11/23/2014 06:10 Ice Warning 25.2F 31F 32F 95 2% - 96% 3 mhos 496 None None - -
11/23/2014 06:02 Ice Warning 25.3F 31F 32F 95 2% - 96% 3 mhos 496 None None - -
11/23/2014 05:52 Ice Warning 25.7F 31F 32F 95 2% - 95% 3 mhos 489 None None - -
11/23/2014 05:42 Ice Warning 25.7F 31F 32F 95 2% - 95% 3 mhos 496 Yes - - -
11/23/2014 05:40 Ice Warning 25.7F 31F 32F 95 2% - 95% 3 mhos 483 None None - -
11/23/2014 05:32 Ice Warning 25.7F 31F 32F 95 2% - 96% 3 mhos 483 None None - -
11/23/2014 05:22 Ice Warning 25.7F 31F 32F 95 2% - 95% 3 mhos 496 Yes - - -
11/23/2014 05:12 Ice Warning 25.7F 31F 32F 95 2% - 95% 3 mhos 483 None None - -
11/23/2014 05:10 Ice Warning 25.7F 31F 32F 95 2% - 95% 3 mhos 483 None None - -
11/23/2014 05:02 Ice Warning 25.7F 31F 32F 95 2% - 95% 3 mhos 483 None None - -
11/23/2014 04:51 Ice Warning 25.7F 31F 32F 95 2% - 95% 3 mhos 489 None None - -
11/23/2014 04:41 Ice Warning 25.9F 31F 32F 95 2% - 95% 3 mhos 476 None None - -
11/23/2014 04:40 Ice Warning 25.9F 31F 32F 95 2% - 95% 3 mhos 476 None None - -
11/23/2014 04:31 Ice Warning 25.9F 31F 32F 95 2% - 95% 3 mhos 483 None None - -
Date/Time
(MST)
Sf
Temp Chem Water Layer Surface Precipitation
Sf Sub Frz Factor Pct Depth IcePct Cond Salin Type Intens Accum Rate
11/23/2014 04:21 Ice Warning 25.7F 31F 32F 95 2% - 96% 3 mhos 476 None None - -
11/23/2014 04:11 Ice Warning 26.1F 31F 32F 95 2% - 95% 3 mhos 483 None None - -
11/23/2014 04:10 Ice Warning 26.2F 31F 32F 95 2% - 95% 3 mhos 483 None None - -
11/23/2014 04:01 Ice Warning 26.2F 31F 32F 95 2% - 95% 3 mhos 483 Yes - - -
11/23/2014 03:51 Ice Warning 26.2F 31F 32F 95 2% - 95% 3 mhos 483 Yes - - -
11/23/2014 03:41 Ice Warning 26.2F 31F 32F 95 2% - 95% 3 mhos 477 Yes - - -
11/23/2014 03:39 Ice Warning 26.2F 31F 32F 95 2% - 95% 3 mhos 470 Yes - - -
11/23/2014 03:31 Ice Warning 26.1F 31F 32F 95 2% - 95% 3 mhos 476 Yes - - -
11/23/2014 03:21 Ice Warning 26.1F 31F 32F 95 2% - 95% 3 mhos 470 Yes - - -
11/23/2014 03:11 Ice Warning 25.9F 31F 32F 95 2% - 95% 3 mhos 470 Yes - - -
11/23/2014 03:11 Ice Warning 25.9F 31F 32F 95 2% - 96% 3 mhos 464 Yes - - -
11/23/2014 03:01 Ice Warning 25.7F 31F 32F 95 2% - 96% 3 mhos 464 None None - -
11/23/2014 02:51 Ice Warning 25.9F 31F 32F 95 2% - 96% 3 mhos 458 Yes - - -
11/23/2014 02:41 Ice Warning 26.1F 31F 32F 95 2% - 96% 3 mhos 458 None None - -
11/23/2014 02:39 Ice Warning 26.2F 31F 32F 95 2% - 95% 3 mhos 452 None None - -
Date/Time
(MST)
Sf
Temp Chem Water Layer Surface Precipitation
Sf Sub Frz Factor Pct Depth IcePct Cond Salin Type Intens Accum Rate
11/23/2014 02:31 Ice Warning 26.4F 31F 32F 95 2% - 95% 3 mhos 452 None None - -
11/23/2014 02:21 Ice Warning 26.6F 31F 32F 95 2% - 95% 3 mhos 452 None None - -
11/23/2014 02:11 Ice Warning 26.8F 31F 32F 95 2% - 95% 3 mhos 452 None None - -
11/23/2014 02:11 Ice Warning 26.8F 31F 32F 95 2% - 95% 3 mhos 459 None None - -
11/23/2014 02:01 Ice Warning 26.8F 31F 32F 95 2% - 95% 3 mhos 459 None None - -
11/23/2014 01:51 Ice Warning 26.8F 31F 32F 95 2% - 95% 3 mhos 472 Yes - - -
11/23/2014 01:40 Ice Warning 27.3F 31F 32F 95 2% - 94% 4 mhos 528 Yes - - -
11/23/2014 01:40 Ice Warning 27.3F 31F 32F 95 2% - 94% 4 mhos 528 Yes - - -
11/23/2014 01:30 Ice Warning 27.1F 31F 32F 95 2% - 94% 4 mhos 543 None None - -
11/23/2014 01:20 Ice Warning 27.1F 31F 32F 95 2% - 94% 4 mhos 543 Yes - - -
11/23/2014 01:10 Ice Warning 27.0F 31F 32F 95 2% - 94% 4 mhos 541 None None - -
11/23/2014 01:10 Ice Warning 27.0F 31F 32F 95 2% - 94% 4 mhos 541 None None - -
11/23/2014 01:00 Ice Warning 27.0F 31F 32F 95 2% - 94% 4 mhos 550 None None - -
11/23/2014 00:50 Ice Warning 27.1F 31F 32F 95 2% - 94% 4 mhos 552 None None - -
11/23/2014 00:40 Ice Warning 27.1F 31F 32F 95 2% - 94% 4 mhos 543 None None - -
Date/Time
(MST)
Sf
Temp Chem Water Layer Surface Precipitation
Sf Sub Frz Factor Pct Depth IcePct Cond Salin Type Intens Accum Rate
11/23/2014 00:38 Ice Warning 27.1F 31F 32F 95 2% - 94% 4 mhos 543 None None - -
11/23/2014 00:30 Ice Warning 27.0F 31F 32F 95 2% - 94% 4 mhos 541 None None - -
11/23/2014 00:20 Ice Warning 27.0F 31F 32F 95 2% - 94% 4 mhos 550 None None - -
11/23/2014 00:10 Ice Warning 27.3F 31F 32F 95 2% - 94% 4 mhos 536 None None - -
11/23/2014 00:08 Ice Warning 27.3F 31F 32F 95 2% - 94% 4 mhos 545 Yes - - -
11/23/2014 00:00 Ice Warning 27.1F 31F 32F 95 2% - 94% 4 mhos 552 Yes - - -
11/22/2014 23:50 Ice Warning 27.1F 31F 32F 95 2% - 94% 4 mhos 552 None None - -
11/22/2014 23:40 Ice Warning 27.1F 31F 31F 95 2% - 93% 4 mhos 592 None None - -
11/22/2014 23:39 Ice Warning 27.1F 31F 31F 95 2% - 93% 4 mhos 592 Yes - - -
11/22/2014 23:30 Ice Warning 27.1F 31F 31F 95 2% - 93% 4 mhos 647 Yes - - -
11/22/2014 23:20 Ice Warning 27.0F 31F 31F 95 2% - 93% 4 mhos 634 Yes - - -
11/22/2014 23:10 Ice Warning 26.6F 31F 31F 95 2% - 94% 4 mhos 560 None None - -
11/22/2014 23:09 Ice Warning 26.6F 31F 31F 95 2% - 94% 4 mhos 560 None None - -
11/22/2014 23:00 Ice Warning 26.4F 31F 31F 95 2% - 94% 4 mhos 558 None None - -
11/22/2014 22:50 Ice Warning 26.1F 31F 32F 95 2% - 95% 3 mhos 555 None None - -
Date/Time
(MST)
Sf
Temp Chem Water Layer Surface Precipitation
Sf Sub Frz Factor Pct Depth IcePct Cond Salin Type Intens Accum Rate
11/22/2014 22:40 Ice Warning 26.6F 31F 31F 95 2% - 94% 4 mhos 570 None None - -
11/22/2014 22:40 Ice Warning 26.6F 31F 31F 95 2% - 94% 4 mhos 570 None None - -
11/22/2014 22:29 Ice Warning 26.8F 31F 31F 95 2% - 94% 4 mhos 595 None None - -
11/22/2014 22:19 Ice Warning 27.1F 31F 31F 95 2% - 93% 4 mhos 581 None None - -
11/22/2014 22:11 Ice Warning 27.1F 31F 31F 95 2% - 93% 4 mhos 626 None None - -
11/22/2014 22:09 Ice Warning 27.1F 31F 31F 95 2% - 93% 4 mhos 626 Yes - - -
11/22/2014 21:59 Ice Warning 27.3F 31F 31F 95 2% - 91% 5 mhos 749 Yes - - -
11/22/2014 21:49 Ice Warning 27.5F 31F 31F 95 3% - 91% 5 mhos 757 Yes - - -
11/22/2014 21:40 Ice Warning 27.5F 31F 31F 95 3% - 91% 5 mhos 757 Yes - - -
11/22/2014 21:39 Ice Warning 27.5F 31F 31F 95 3% - 91% 5 mhos 757 Yes - - -
11/22/2014 21:29 Ice Warning 27.5F 31F 31F 95 2% - 91% 5 mhos 739 Yes - - -
11/22/2014 21:19 Ice Warning 27.5F 31F 31F 95 2% - 91% 5 mhos 723 None None - -
11/22/2014 21:10 Ice Warning 27.5F 31F 31F 95 2% - 91% 5 mhos 739 None None - -
11/22/2014 21:09 Ice Warning 27.5F 31F 31F 95 2% - 91% 5 mhos 739 None None - -
11/22/2014 20:59 Ice Warning 27.5F 31F 31F 95 2% - 91% 5 mhos 721 None None - -
Date/Time
(MST)
Sf
Temp Chem Water Layer Surface Precipitation
Sf Sub Frz Factor Pct Depth IcePct Cond Salin Type Intens Accum Rate
11/22/2014 20:49 Ice Warning 27.3F 31F 31F 95 2% - 91% 5 mhos 732 None None - -
11/22/2014 20:41 Ice Warning 27.5F 31F 31F 95 2% - 91% 5 mhos 723 None None - -
11/22/2014 20:39 Ice Warning 27.3F 31F 31F 95 2% - 91% 5 mhos 732 None None - -
11/22/2014 20:29 Ice Warning 27.5F 31F 31F 95 2% - 91% 5 mhos 740 Yes - - -
11/22/2014 20:19 Ice Warning 27.5F 31F 31F 95 2% - 92% 5 mhos 707 None None - -
11/22/2014 20:10 Ice Warning 27.3F 31F 31F 95 2% - 92% 5 mhos 685 Yes - - -
11/22/2014 20:09 Ice Warning 27.3F 31F 31F 95 2% - 92% 5 mhos 685 None None - -
11/22/2014 19:59 Ice Warning 27.1F 31F 31F 95 2% - 92% 5 mhos 666 Yes - - -
11/22/2014 19:49 Ice Warning 26.8F 31F 31F 95 2% - 93% 5 mhos 683 Yes - - -
11/22/2014 19:40 Ice Warning 26.8F 31F 31F 95 2% - 92% 5 mhos 711 Yes - - -
11/22/2014 19:39 Ice Warning 26.8F 31F 31F 95 2% - 92% 5 mhos 711 Yes - - -
11/22/2014 19:29 Ice Warning 26.8F 31F 31F 95 2% - 93% 5 mhos 691 None None - -
11/22/2014 19:18 Ice Warning 26.6F 31F 31F 95 2% - 93% 4 mhos 672 None None - -
11/22/2014 19:10 Ice Warning 26.4F 31F 31F 95 2% - 93% 4 mhos 656 None None - -
11/22/2014 19:08 Ice Warning 26.2F 31F 31F 95 2% - 93% 4 mhos 664 None None - -
Date/Time
(MST)
Sf
Temp Chem Water Layer Surface Precipitation
Sf Sub Frz Factor Pct Depth IcePct Cond Salin Type Intens Accum Rate
11/22/2014 18:58 Ice Warning 26.1F 31F 31F 95 2% - 93% 4 mhos 709 None None - -
11/22/2014 18:48 Ice Warning 25.7F 31F 31F 95 2% - 94% 4 mhos 610 None None - -
11/22/2014 18:39 Ice Warning 25.7F 31F 31F 95 2% - 94% 4 mhos 610 None None - -
11/22/2014 18:38 Ice Warning 25.7F 31F 31F 95 2% - 94% 4 mhos 600 None None - -
11/22/2014 18:28 Ice Warning 25.7F 31F 31F 95 2% - 94% 4 mhos 598 None None - -
11/22/2014 18:18 Ice Warning 25.9F 31F 31F 95 2% - 95% 4 mhos 574 None None - -
11/22/2014 18:11 Ice Warning 26.2F 31F 31F 95 2% - 94% 4 mhos 559 None None - -
11/22/2014 18:08 Ice Warning 26.4F 31F 31F 95 2% - 94% 4 mhos 561 None None - -
11/22/2014 17:58 Ice Warning 27.0F 31F 31F 95 2% - 93% 4 mhos 618 None None - -
11/22/2014 17:48 Ice Warning 26.8F 31F 32F 95 2% - 94% 4 mhos 532 None None - -
11/22/2014 17:41 Ice Warning 26.8F 31F 32F 95 2% - 94% 4 mhos 540 None None - -
11/22/2014 17:38 Ice Warning 26.8F 31F 32F 95 2% - 94% 4 mhos 540 None None - -
11/22/2014 17:28 Ice Warning 27.1F 31F 31F 95 2% - 94% 4 mhos 563 Yes - - -
11/22/2014 17:18 Ice Warning 27.9F 31F 31F 95 2% - 91% 5 mhos 675 None None - -
11/22/2014 17:10 Ice Warning 28.0F 31F 31F 95 2% - 91% 5 mhos 712 None None - -
Date/Time
(MST)
Sf
Temp Chem Water Layer Surface Precipitation
Sf Sub Frz Factor Pct Depth IcePct Cond Salin Type Intens Accum Rate
11/22/2014 17:08 Ice Warning 28.0F 31F 31F 95 2% - 91% 5 mhos 712 None None - -
11/22/2014 16:58 Ice Warning 28.2F 31F 31F 95 3% - 89% 6 mhos 811 None None - -
11/22/2014 16:48 Ice Warning 28.6F 31F 31F 95 2% - 89% 6 mhos 743 None None - -
11/22/2014 16:40 Ice Warning 28.9F 31F 31F 95 2% - 88% 6 mhos 744 None None - -
11/22/2014 16:38 Ice Warning 28.9F 31F 31F 95 2% - 88% 6 mhos 725 None None - -
11/22/2014 16:28 Ice Warning 29.3F 31F 31F 95 2% - 86% 6 mhos 735 None None - -
11/22/2014 16:17 Chemically Wet 30.2F 31F 31F 95 2% - 83% 6 mhos 709 None None - -
11/22/2014 16:10 Chemically Wet 30.7F 31F 31F 95 2% - 76% 6 mhos 693 None None - -
11/22/2014 16:07 Chemically Wet 31.3F 31F 31F 95 2% - 64% 6 mhos 667 None None - -
11/22/2014 15:57 Chemically Wet 31.8F 31F 31F 95 2% 0.00 in 0% 6 mhos 649 None None - -
11/22/2014 15:47 Wet 32.2F 31F 31F 95 2% 0.00 in 0% 6 mhos 579 None None - -
11/22/2014 15:41 Wet 32.5F 31F 31F 95 2% 0.00 in 0% 6 mhos 591 None None - -
11/22/2014 15:37 Wet 32.5F 31F 31F 95 2% 0.00 in 0% 6 mhos 575 None None - -
11/22/2014 15:27 Wet 33.3F 31F 32F 95 2% 0.00 in 0% 5 mhos 528 None None - -
11/22/2014 15:20 Wet 33.8F 31F 32F 95 2% 0.00 in 0% 5 mhos 538 None None - -
Date/Time
(MST)
Sf
Temp Chem Water Layer Surface Precipitation
Sf Sub Frz Factor Pct Depth IcePct Cond Salin Type Intens Accum Rate
11/22/2014 15:17 Wet 33.8F 31F 32F 95 2% 0.00 in 0% 6 mhos 550 None None - -
11/22/2014 15:07 Wet 34.3F 31F 31F 95 2% 0.00 in 0% 6 mhos 627 None None - -
11/22/2014 15:01 Wet 34.2F 31F 31F 95 2% 0.00 in 0% 7 mhos 646 None None - -
11/22/2014 14:57 Wet 34.2F 31F 31F 95 2% 0.00 in 0% 7 mhos 666 None None - -
11/22/2014 14:47 Wet 36.1F 31F 31F 95 2% 0.00 in 0% 7 mhos 691 None None - -
11/22/2014 14:41 Wet 36.1F 31F 31F 95 2% 0.00 in 0% 7 mhos 716 None None - -
11/22/2014 14:37 Wet 36.5F 31F 31F 95 2% 0.00 in 0% 8 mhos 736 None None - -
11/22/2014 14:35 Wet 37.4F 31F 31F 95 3% 0.00 in 0% 9 mhos 814 None None - -
11/22/2014 14:27 Wet 34.5F 31F 31F 95 3% 0.00 in 0% 8 mhos 837 None None - -
11/22/2014 14:17 Wet 33.8F 31F 31F 95 3% 0.00 in 0% 9 mhos 858 None None - -
11/22/2014 14:07 Wet 34.0F 31F 31F 95 3% 0.00 in 0% 9 mhos 881 None None - -
11/22/2014 14:01 Wet 34.9F 31F 31F 95 3% 0.00 in 0% 9 mhos 904 None None - -
11/22/2014 13:57 Wet 35.8F 31F 31F 95 3% 0.00 in 0% 9 mhos 925 None None - -
11/22/2014 13:47 Wet 38.1F 31F 31F 95 3% 0.00 in 0% 10 mhos 967 None None - -
11/22/2014 13:37 Wet 37.2F 31F 31F 95 3% 0.00 in 0% 10 mhos 1004 None None - -
Date/Time
(MST)
Sf
Temp Chem Water Layer Surface Precipitation
Sf Sub Frz Factor Pct Depth IcePct Cond Salin Type Intens Accum Rate
11/22/2014 13:32 Wet 36.5F 31F 31F 95 3% 0.00 in 0% 10 mhos 1014 None None - -
11/22/2014 13:27 Wet 37.4F 31F 31F 95 4% 0.00 in 0% 11 mhos 1053 None None - -
11/22/2014 13:17 Wet 36.7F 31F 31F 95 4% 0.00 in 0% 12 mhos 1129 None None - -
11/22/2014 13:07 Wet 33.8F 31F 31F 95 4% 0.00 in 0% 11 mhos 1138 None None - -
11/22/2014 13:01 Wet 32.4F 31F 31F 95 4% 0.10 in 0% 11 mhos 1164 None None - -
11/22/2014 12:56 Wet 34.2F 31F 31F 95 4% 0.10 in 0% 12 mhos 1213 None None - -
11/22/2014 12:47 Wet 34.7F 31F 31F 95 4% 0.10 in 0% 13 mhos 1267 None None - -
11/22/2014 12:46 Wet 34.7F 31F 31F 95 4% 0.10 in 0% 13 mhos 1267 None None - -
11/22/2014 12:36 Wet 33.4F 31F 31F 95 4% 0.10 in 0% 13 mhos 1347 None None - -
11/22/2014 12:31 Wet 32.4F 31F 31F 95 4% 0.00 in 0% 12 mhos 1263 None None - -
11/22/2014 12:26 Chemically Wet 30.9F 31F 31F 95 4% - 52% 11 mhos 1207 None None - -
11/22/2014 12:16 Chemically Wet 30.6F 31F 31F 95 2% - 78% 6 mhos 694 None None - -
11/22/2014 12:06 Chemically Wet 30.2F 31F 31F 95 2% - 85% 5 mhos 625 Yes - - -
11/22/2014 12:06 Chemically Wet 30.2F 31F 31F 95 2% - 85% 5 mhos 612 Yes - - -
11/22/2014 11:56 Chemically Wet 30.2F 31F 30F 95 8% 0.00 in 0% 22 mhos 2469 None None - -
Date/Time
(MST)
Sf
Temp Chem Water Layer Surface Precipitation
Sf Sub Frz Factor Pct Depth IcePct Cond Salin Type Intens Accum Rate
11/22/2014 11:46 Chemically Wet 30.4F 31F 28F 95 12% 0.00 in 0% 32 mhos 3710 None None - -
Change End Date:
Copyright © 1998-2005 Surface Systems, Inc.
All Rights Reserved
Send comments about the data to:
SCAN Web ® is a registered trademark of Surface Systems, Inc.
SCAN Web Version 5.6